createdAt,value
2023-09-08T00:00:02.143Z,101365.03
2023-09-08T00:02:51.918Z,101362.47
2023-09-08T00:05:39.313Z,101356.91
2023-09-08T00:08:26.599Z,101349.66
2023-09-08T00:11:13.711Z,101358.63
2023-09-08T00:14:00.943Z,101362.47
2023-09-08T00:16:48.291Z,101356.91
2023-09-08T00:19:35.988Z,101360.78
2023-09-08T00:22:23.233Z,101362.94
2023-09-08T00:25:10.439Z,101364.63
2023-09-08T00:27:57.632Z,101362.94
2023-09-08T00:30:44.738Z,101361.22
2023-09-08T00:33:32.346Z,101361.22
2023-09-08T00:36:20.241Z,101361.22
2023-09-08T00:39:07.440Z,101361.22
2023-09-08T00:41:55.136Z,101364.00
2023-09-08T00:44:42.384Z,101361.22
2023-09-08T00:47:29.984Z,101358.44
2023-09-08T00:50:17.272Z,101358.66
2023-09-08T00:53:06.639Z,101355.66
2023-09-08T00:55:55.180Z,101348.38
2023-09-08T00:58:42.463Z,101362.06
2023-09-08T01:01:30.369Z,101359.53
2023-09-08T01:04:17.544Z,101359.53
2023-09-08T01:07:05.450Z,101350.09
2023-09-08T01:09:53.372Z,101344.72
2023-09-08T01:12:41.358Z,101352.88
2023-09-08T01:15:28.520Z,101347.72
2023-09-08T01:18:15.750Z,101346.66
2023-09-08T01:21:52.375Z,101346.66
2023-09-08T01:25:13.522Z,101354.75
2023-09-08T01:28:03.370Z,101349.84
2023-09-08T01:30:52.734Z,101352.25
2023-09-08T01:33:41.551Z,101357.81
2023-09-08T01:36:28.666Z,101357.41
2023-09-08T01:39:15.814Z,101352.25
2023-09-08T01:42:03.116Z,101351.84
2023-09-08T01:44:50.288Z,101359.13
2023-09-08T01:47:38.704Z,101355.47
2023-09-08T01:50:26.341Z,101352.69
2023-09-08T01:53:13.509Z,101350.78
2023-09-08T01:56:00.799Z,101354.41
2023-09-08T01:58:48.015Z,101348.81
2023-09-08T02:01:35.194Z,101352.69
2023-09-08T02:04:22.567Z,101345.19
2023-09-08T02:07:09.867Z,101343.25
2023-09-08T02:09:57.015Z,101348.81
2023-09-08T02:12:44.157Z,101342.63
2023-09-08T02:15:31.323Z,101342.63
2023-09-08T02:18:18.564Z,101348.19
2023-09-08T02:21:05.739Z,101345.81
2023-09-08T02:23:52.944Z,101346.66
2023-09-08T02:26:41.995Z,101337.69
2023-09-08T02:29:29.573Z,101341.53
2023-09-08T02:32:16.740Z,101337.91
2023-09-08T02:35:04.570Z,101340.69
2023-09-08T02:37:51.896Z,101334.91
2023-09-08T02:40:40.020Z,101339.84
2023-09-08T02:43:28.408Z,101328.72
2023-09-08T02:46:16.632Z,101334.06
2023-09-08T02:49:04.744Z,101338.75
2023-09-08T02:51:52.020Z,101337.69
2023-09-08T02:54:39.309Z,101335.13
2023-09-08T02:57:26.642Z,101335.97
2023-09-08T03:00:14.386Z,101338.13
2023-09-08T03:03:01.638Z,101338.13
2023-09-08T03:05:49.132Z,101335.56
2023-09-08T03:08:38.164Z,101338.13
2023-09-08T03:11:25.559Z,101333.19
2023-09-08T03:14:12.726Z,101330.88
2023-09-08T03:17:00.141Z,101336.44
2023-09-08T03:19:47.782Z,101331.72
2023-09-08T03:22:34.917Z,101331.94
2023-09-08T03:25:22.579Z,101333.88
2023-09-08T03:28:09.766Z,101333.00
2023-09-08T03:30:56.976Z,101335.56
2023-09-08T03:33:44.433Z,101326.16
2023-09-08T03:36:36.821Z,101329.59
2023-09-08T03:39:24.376Z,101328.53
2023-09-08T03:42:11.504Z,101317.59
2023-09-08T03:44:58.709Z,101320.59
2023-09-08T03:47:46.014Z,101324.63
2023-09-08T03:50:33.781Z,101321.22
2023-09-08T03:53:21.039Z,101320.78
2023-09-08T03:56:08.252Z,101316.28
2023-09-08T03:58:55.727Z,101319.06
2023-09-08T04:01:43.007Z,101318.44
2023-09-08T04:04:30.170Z,101316.75
2023-09-08T04:07:17.402Z,101318.44
2023-09-08T04:10:05.314Z,101314.59
2023-09-08T04:12:52.618Z,101319.53
2023-09-08T04:15:40.585Z,101312.88
2023-09-08T04:18:28.361Z,101313.75
2023-09-08T04:21:15.611Z,101314.59
2023-09-08T04:24:03.037Z,101310.09
2023-09-08T04:26:50.297Z,101317.38
2023-09-08T04:29:37.691Z,101307.31
2023-09-08T04:32:24.954Z,101305.63
2023-09-08T04:35:12.882Z,101305.22
2023-09-08T04:38:01.429Z,101310.81
2023-09-08T04:40:52.016Z,101306.38
2023-09-08T04:43:39.340Z,101299.72
2023-09-08T04:46:26.619Z,101307.88
2023-09-08T04:49:14.110Z,101308.31
2023-09-08T04:52:01.407Z,101305.78
2023-09-08T04:54:50.199Z,101305.38
2023-09-08T04:57:37.381Z,101308.59
2023-09-08T05:00:25.054Z,101311.59
2023-09-08T05:03:12.828Z,101310.53
2023-09-08T05:06:00.327Z,101309.28
2023-09-08T05:08:49.014Z,101312.06
2023-09-08T05:11:36.994Z,101310.56
2023-09-08T05:14:26.005Z,101310.16
2023-09-08T05:17:13.708Z,101317.44
2023-09-08T05:20:00.985Z,101312.31
2023-09-08T05:22:49.237Z,101314.44
2023-09-08T05:25:36.365Z,101325.56
2023-09-08T05:28:23.976Z,101321.31
2023-09-08T05:31:11.465Z,101321.75
2023-09-08T05:33:58.923Z,101322.59
2023-09-08T05:36:46.820Z,101315.34
2023-09-08T05:39:34.301Z,101311.94
2023-09-08T05:42:21.459Z,101321.34
2023-09-08T05:45:09.166Z,101328.00
2023-09-08T05:47:56.491Z,101320.91
2023-09-08T05:50:44.186Z,101336.75
2023-09-08T05:53:32.145Z,101334.19
2023-09-08T05:56:21.154Z,101329.47
2023-09-08T05:59:08.487Z,101335.03
2023-09-08T06:01:55.772Z,101335.50
2023-09-08T06:04:43.127Z,101334.16
2023-09-08T06:07:30.826Z,101341.06
2023-09-08T06:10:18.144Z,101335.50
2023-09-08T06:13:06.463Z,101335.50
2023-09-08T06:15:53.835Z,101328.19
2023-09-08T06:18:41.618Z,101335.50
2023-09-08T06:21:33.621Z,101338.03
2023-09-08T06:24:20.821Z,101335.03
2023-09-08T06:27:08.865Z,101336.75
2023-09-08T06:29:57.824Z,101335.91
2023-09-08T06:32:45.621Z,101330.78
2023-09-08T06:35:35.021Z,101341.91
2023-09-08T06:38:22.330Z,101345.31
2023-09-08T06:41:12.642Z,101343.59
2023-09-08T06:44:00.989Z,101346.38
2023-09-08T06:46:49.559Z,101346.56
2023-09-08T06:49:36.863Z,101347.47
2023-09-08T06:52:24.316Z,101349.56
2023-09-08T06:55:11.514Z,101352.19
2023-09-08T06:57:59.017Z,101354.72
2023-09-08T07:00:46.396Z,101353.88
2023-09-08T07:03:38.500Z,101359.84
2023-09-08T07:06:28.148Z,101367.56
2023-09-08T07:09:17.215Z,101367.56
2023-09-08T07:12:07.972Z,101361.59
2023-09-08T07:14:55.400Z,101361.78
2023-09-08T07:17:43.233Z,101365.22
2023-09-08T07:20:31.271Z,101362.84
2023-09-08T07:23:21.670Z,101363.28
2023-09-08T07:26:08.893Z,101369.25
2023-09-08T07:28:56.318Z,101367.78
2023-09-08T07:31:43.991Z,101359.00
2023-09-08T07:34:31.312Z,101357.72
2023-09-08T07:37:18.656Z,101364.53
2023-09-08T07:40:06.980Z,101367.09
2023-09-08T07:42:54.445Z,101366.69
2023-09-08T07:45:42.226Z,101367.09
2023-09-08T07:48:29.807Z,101356.19
2023-09-08T07:51:17.078Z,101358.53
2023-09-08T07:54:05.506Z,101353.41
2023-09-08T07:56:52.864Z,101351.72
2023-09-08T07:59:40.086Z,101353.41
2023-09-08T08:02:27.297Z,101351.72
2023-09-08T08:05:14.616Z,101355.13
2023-09-08T08:08:01.935Z,101359.81
2023-09-08T08:10:49.130Z,101361.97
2023-09-08T08:13:36.225Z,101350.63
2023-09-08T08:16:24.202Z,101347.63
2023-09-08T08:19:11.314Z,101355.13
2023-09-08T08:21:59.191Z,101354.66
2023-09-08T08:24:46.867Z,101350.19
2023-09-08T08:27:34.089Z,101359.78
2023-09-08T08:30:21.443Z,101358.91
2023-09-08T08:33:08.759Z,101361.03
2023-09-08T08:35:56.076Z,101350.34
2023-09-08T08:38:43.196Z,101353.75
2023-09-08T08:41:30.646Z,101356.09
2023-09-08T08:44:20.039Z,101365.69
2023-09-08T08:47:12.289Z,101359.47
2023-09-08T08:50:01.810Z,101362.50
2023-09-08T08:52:49.296Z,101359.25
2023-09-08T08:55:37.027Z,101359.88
2023-09-08T08:58:27.735Z,101360.53
2023-09-08T09:01:20.154Z,101352.84
2023-09-08T09:04:08.092Z,101348.97
2023-09-08T09:06:55.594Z,101357.72
2023-09-08T09:09:42.795Z,101351.94
2023-09-08T09:12:30.741Z,101358.13
2023-09-08T09:15:33.722Z,101352.75
2023-09-08T09:18:21.232Z,101355.13
2023-09-08T09:21:08.472Z,101363.28
2023-09-08T09:23:57.040Z,101359.41
2023-09-08T09:26:44.919Z,101361.13
2023-09-08T09:29:32.481Z,101358.13
2023-09-08T09:32:26.669Z,101352.31
2023-09-08T09:35:13.807Z,101357.91
2023-09-08T09:38:00.964Z,101354.00
2023-09-08T09:40:49.996Z,101362.38
2023-09-08T09:43:38.096Z,101353.59
2023-09-08T09:46:28.402Z,101360.00
2023-09-08T09:49:20.582Z,101363.28
2023-09-08T09:52:07.801Z,101354.81
2023-09-08T09:54:57.778Z,101359.34
2023-09-08T09:57:45.213Z,101361.25
2023-09-08T10:00:35.750Z,101360.41
2023-09-08T10:03:25.705Z,101360.41
2023-09-08T10:06:15.724Z,101365.53
2023-09-08T10:09:10.031Z,101353.31
2023-09-08T10:12:04.300Z,101352.03
2023-09-08T10:14:55.779Z,101344.50
2023-09-08T10:17:47.219Z,101351.56
2023-09-08T10:20:35.957Z,101352.66
2023-09-08T10:23:49.059Z,101352.63
2023-09-08T10:26:40.228Z,101345.75
2023-09-08T10:29:28.566Z,101350.47
2023-09-08T10:32:17.984Z,101349.66
2023-09-08T10:35:07.488Z,101345.75
2023-09-08T10:38:25.241Z,101344.41
2023-09-08T10:41:18.418Z,101354.72
2023-09-08T10:44:09.862Z,101344.88
2023-09-08T10:46:59.088Z,101340.81
2023-09-08T10:49:46.682Z,101341.47
2023-09-08T10:52:36.301Z,101342.31
2023-09-08T10:55:38.567Z,101343.97
2023-09-08T10:58:34.189Z,101336.69
2023-09-08T11:01:28.849Z,101337.16
2023-09-08T11:04:20.305Z,101333.28
2023-09-08T11:07:07.647Z,101335.00
2023-09-08T11:09:55.270Z,101337.16
2023-09-08T11:12:42.507Z,101338.00
2023-09-08T11:15:29.674Z,101333.28
2023-09-08T11:18:16.944Z,101342.25
2023-09-08T11:21:09.259Z,101342.25
2023-09-08T11:23:56.952Z,101337.56
2023-09-08T11:26:47.577Z,101332.81
2023-09-08T11:29:34.755Z,101338.41
2023-09-08T11:32:22.571Z,101336.25
2023-09-08T11:35:11.591Z,101337.97
2023-09-08T11:38:02.201Z,101342.44
2023-09-08T11:40:50.343Z,101339.03
2023-09-08T11:43:38.194Z,101332.38
2023-09-08T11:46:27.303Z,101330.66
2023-09-08T11:49:14.595Z,101333.00
2023-09-08T11:52:01.832Z,101330.66
2023-09-08T11:55:04.165Z,101335.78
2023-09-08T11:57:58.279Z,101334.06
2023-09-08T12:00:49.024Z,101330.22
2023-09-08T12:03:36.318Z,101331.28
2023-09-08T12:06:30.092Z,101339.22
2023-09-08T12:09:17.640Z,101325.50
2023-09-08T12:12:11.678Z,101330.44
2023-09-08T12:14:58.842Z,101333.00
2023-09-08T12:17:51.258Z,101325.06
2023-09-08T12:20:40.629Z,101329.38
2023-09-08T12:23:27.737Z,101334.69
2023-09-08T12:26:14.960Z,101328.06
2023-09-08T12:29:13.130Z,101329.78
2023-09-08T12:32:00.333Z,101318.25
2023-09-08T12:34:47.891Z,101319.09
2023-09-08T12:37:35.241Z,101327.22
2023-09-08T12:40:22.773Z,101321.25
2023-09-08T12:43:14.779Z,101328.06
2023-09-08T12:46:14.459Z,101324.22
2023-09-08T12:49:01.596Z,101321.66
2023-09-08T12:51:48.970Z,101314.13
2023-09-08T12:54:36.741Z,101312.41
2023-09-08T12:57:23.910Z,101307.72
2023-09-08T13:00:11.795Z,101313.06
2023-09-08T13:02:59.473Z,101314.75
2023-09-08T13:05:46.823Z,101313.91
2023-09-08T13:08:34.398Z,101309.19
2023-09-08T13:11:22.694Z,101313.06
2023-09-08T13:14:10.136Z,101308.16
2023-09-08T13:16:57.261Z,101302.75
2023-09-08T13:19:46.333Z,101298.91
2023-09-08T13:22:33.728Z,101298.69
2023-09-08T13:25:21.004Z,101298.03
2023-09-08T13:28:08.299Z,101295.91
2023-09-08T13:30:55.604Z,101293.34
2023-09-08T13:33:42.755Z,101283.06
2023-09-08T13:36:29.903Z,101290.34
2023-09-08T13:39:17.329Z,101290.97
2023-09-08T13:42:04.770Z,101283.91
2023-09-08T13:44:52.127Z,101293.75
2023-09-08T13:47:40.232Z,101287.09
2023-09-08T13:50:28.121Z,101286.47
2023-09-08T13:53:15.633Z,101278.34
2023-09-08T13:56:08.991Z,101282.38
2023-09-08T13:58:57.685Z,101279.59
2023-09-08T14:04:34.512Z,101266.75
2023-09-08T14:07:27.647Z,101273.16
2023-09-08T14:10:29.301Z,101269.28
2023-09-08T14:13:25.189Z,101270.16
2023-09-08T14:16:13.920Z,101278.28
2023-09-08T14:19:01.075Z,101275.50
2023-09-08T14:21:48.337Z,101269.28
2023-09-08T14:24:35.474Z,101275.72
2023-09-08T14:27:22.630Z,101257.69
2023-09-08T14:30:10.411Z,101257.69
2023-09-08T14:32:57.780Z,101259.41
2023-09-08T14:35:47.171Z,101260.47
2023-09-08T14:38:34.360Z,101257.69
2023-09-08T14:41:21.513Z,101251.50
2023-09-08T14:44:08.738Z,101252.13
2023-09-08T14:46:55.874Z,101249.34
2023-09-08T14:49:43.785Z,101252.13
2023-09-08T14:52:30.905Z,101250.84
2023-09-08T14:55:18.166Z,101247.78
2023-09-08T14:58:05.373Z,101251.06
2023-09-08T15:00:53.057Z,101245.25
2023-09-08T15:03:40.811Z,101247.78
2023-09-08T15:06:28.802Z,101248.66
2023-09-08T15:09:16.247Z,101240.03
2023-09-08T15:12:03.709Z,101249.50
2023-09-08T15:14:50.859Z,101238.13
2023-09-08T15:17:37.987Z,101240.53
2023-09-08T15:20:25.645Z,101246.72
2023-09-08T15:23:12.885Z,101244.78
2023-09-08T15:26:00.213Z,101247.34
2023-09-08T15:28:47.352Z,101247.34
2023-09-08T15:31:34.740Z,101243.72
2023-09-08T15:34:22.051Z,101252.47
2023-09-08T15:37:09.225Z,101241.75
2023-09-08T15:39:56.409Z,101243.47
2023-09-08T15:42:44.527Z,101240.44
2023-09-08T15:45:31.948Z,101239.59
2023-09-08T15:48:19.178Z,101232.97
2023-09-08T15:51:09.599Z,101233.19
2023-09-08T15:53:56.729Z,101226.28
2023-09-08T15:56:47.000Z,101230.63
2023-09-08T15:59:34.558Z,101230.16
2023-09-08T16:02:21.703Z,101226.28
2023-09-08T16:05:09.253Z,101223.50
2023-09-08T16:07:56.411Z,101220.72
2023-09-08T16:10:44.497Z,101218.53
2023-09-08T16:13:32.725Z,101221.31
2023-09-08T16:16:19.942Z,101216.84
2023-09-08T16:19:07.456Z,101230.56
2023-09-08T16:21:54.621Z,101223.03
2023-09-08T16:24:41.821Z,101229.69
2023-09-08T16:27:29.670Z,101222.81
2023-09-08T16:30:16.894Z,101229.25
2023-09-08T16:33:04.127Z,101227.56
2023-09-08T16:35:51.301Z,101227.56
2023-09-08T16:38:38.464Z,101222.81
2023-09-08T16:41:25.729Z,101232.63
2023-09-08T16:44:12.974Z,101223.66
2023-09-08T16:47:00.249Z,101225.38
2023-09-08T16:49:48.065Z,101220.88
2023-09-08T16:52:35.322Z,101225.13
2023-09-08T16:55:22.508Z,101226.22
2023-09-08T16:58:09.669Z,101218.69
2023-09-08T17:00:56.819Z,101228.78
2023-09-08T17:03:44.032Z,101226.63
2023-09-08T17:06:31.383Z,101229.41
2023-09-08T17:09:18.822Z,101229.41
2023-09-08T17:12:08.288Z,101227.47
2023-09-08T17:14:55.778Z,101222.28
2023-09-08T17:17:42.927Z,101221.66
2023-09-08T17:20:32.164Z,101228.94
2023-09-08T17:23:19.588Z,101216.25
2023-09-08T17:26:08.627Z,101220.09
2023-09-08T17:28:55.885Z,101217.53
2023-09-08T17:31:43.170Z,101220.97
2023-09-08T17:34:30.574Z,101220.09
2023-09-08T17:37:17.806Z,101216.25
2023-09-08T17:40:06.242Z,101219.66
2023-09-08T17:42:53.457Z,101216.88
2023-09-08T17:45:40.901Z,101219.66
2023-09-08T17:48:28.149Z,101226.91
2023-09-08T17:51:15.349Z,101223.06
2023-09-08T17:54:03.154Z,101230.34
2023-09-08T17:56:50.285Z,101233.97
2023-09-08T17:59:37.480Z,101237.00
2023-09-08T18:02:26.031Z,101243.19
2023-09-08T18:05:13.366Z,101241.50
2023-09-08T18:08:00.561Z,101239.94
2023-09-08T18:10:47.897Z,101237.63
2023-09-08T18:13:35.420Z,101235.94
2023-09-08T18:16:22.763Z,101239.09
2023-09-08T18:19:10.128Z,101237.16
2023-09-08T18:21:58.310Z,101242.72
2023-09-08T18:24:45.553Z,101244.41
2023-09-08T18:27:32.706Z,101250.88
2023-09-08T18:30:19.923Z,101244.41
2023-09-08T18:33:07.169Z,101255.56
2023-09-08T18:35:54.399Z,101259.00
2023-09-08T18:38:41.575Z,101251.72
2023-09-08T18:41:28.700Z,101262.25
2023-09-08T18:44:15.882Z,101257.28
2023-09-08T18:47:04.136Z,101268.44
2023-09-08T18:49:51.425Z,101262.66
2023-09-08T18:52:38.721Z,101266.28
2023-09-08T18:55:25.933Z,101271.00
2023-09-08T18:58:13.146Z,101270.16
2023-09-08T19:01:08.206Z,101274.19
2023-09-08T19:03:55.568Z,101275.25
2023-09-08T19:06:43.664Z,101279.16
2023-09-08T19:09:30.902Z,101280.84
2023-09-08T19:12:18.092Z,101289.44
2023-09-08T19:15:06.065Z,101289.44
2023-09-08T19:17:53.410Z,101293.72
2023-09-08T19:20:40.599Z,101290.31
2023-09-08T19:23:28.403Z,101291.75
2023-09-08T19:26:15.505Z,101295.88
2023-09-08T19:29:03.160Z,101293.72
2023-09-08T19:31:50.645Z,101296.50
2023-09-08T19:34:37.803Z,101292.00
2023-09-08T19:37:24.999Z,101288.97
2023-09-08T19:40:12.282Z,101289.81
2023-09-08T19:42:59.474Z,101285.97
2023-09-08T19:45:46.649Z,101293.72
2023-09-08T19:48:35.923Z,101285.97
2023-09-08T19:51:23.277Z,101284.25
2023-09-08T19:54:10.401Z,101295.41
2023-09-08T19:56:57.730Z,101280.38
2023-09-08T19:59:44.922Z,101283.16
2023-09-08T20:02:32.982Z,101281.72
2023-09-08T20:05:20.210Z,101291.53
2023-09-08T20:08:07.750Z,101278.66
2023-09-08T20:10:55.594Z,101277.59
2023-09-08T20:13:43.291Z,101274.81
2023-09-08T20:16:30.493Z,101267.09
2023-09-08T20:19:17.775Z,101274.59
2023-09-08T20:22:04.983Z,101274.81
2023-09-08T20:24:52.169Z,101274.59
2023-09-08T20:27:39.554Z,101276.50
2023-09-08T20:30:26.785Z,101273.97
2023-09-08T20:33:13.983Z,101273.69
2023-09-08T20:36:01.145Z,101265.34
2023-09-08T20:38:48.411Z,101270.91
2023-09-08T20:41:35.753Z,101264.06
2023-09-08T20:44:23.163Z,101260.63
2023-09-08T20:47:12.256Z,101263.22
2023-09-08T20:49:59.483Z,101267.72
2023-09-08T20:52:46.623Z,101260.44
2023-09-08T20:55:33.764Z,101257.66
2023-09-08T20:58:21.083Z,101258.72
2023-09-08T21:01:09.041Z,101258.50
2023-09-08T21:03:56.720Z,101261.06
2023-09-08T21:06:43.933Z,101258.28
2023-09-08T21:09:31.098Z,101259.34
2023-09-08T21:12:18.231Z,101256.56
2023-09-08T21:15:06.559Z,101257.66
2023-09-08T21:17:53.793Z,101264.06
2023-09-08T21:20:40.976Z,101250.97
2023-09-08T21:23:29.193Z,101255.47
2023-09-08T21:26:17.987Z,101257.66
2023-09-08T21:29:05.352Z,101259.34
2023-09-08T21:31:52.570Z,101268.31
2023-09-08T21:34:39.799Z,101258.28
2023-09-08T21:37:27.072Z,101266.63
2023-09-08T21:40:14.544Z,101261.06
2023-09-08T21:43:01.750Z,101265.53
2023-09-08T21:45:52.173Z,101264.91
2023-09-08T21:48:40.195Z,101262.13
2023-09-08T21:51:27.789Z,101279.69
2023-09-08T21:54:14.901Z,101271.72
2023-09-08T21:57:02.150Z,101268.81
2023-09-08T21:59:49.287Z,101267.72
2023-09-08T22:02:36.492Z,101270.50
2023-09-08T22:05:23.830Z,101263.22
2023-09-08T22:08:11.013Z,101270.91
2023-09-08T22:11:06.086Z,101265.53
2023-09-08T22:13:53.367Z,101262.81
2023-09-08T22:16:40.761Z,101257.22
2023-09-08T22:19:27.940Z,101268.00
2023-09-08T22:22:15.096Z,101256.84
2023-09-08T22:25:02.388Z,101260.69
2023-09-08T22:27:49.939Z,101259.84
2023-09-08T22:30:37.141Z,101263.72
2023-09-08T22:33:26.167Z,101262.88
2023-09-08T22:36:13.478Z,101267.59
2023-09-08T22:39:00.939Z,101266.72
2023-09-08T22:41:48.436Z,101264.19
2023-09-08T22:44:35.580Z,101262.47
2023-09-08T22:47:22.710Z,101265.03
2023-09-08T22:50:13.309Z,101259.91
2023-09-08T22:53:01.090Z,101255.19
2023-09-08T22:55:48.299Z,101255.19
2023-09-08T22:58:42.731Z,101259.47
2023-09-08T23:01:29.864Z,101261.25
2023-09-08T23:04:16.969Z,101257.34
2023-09-08T23:07:04.313Z,101259.53
2023-09-08T23:09:52.758Z,101258.22
2023-09-08T23:12:39.964Z,101256.50
2023-09-08T23:15:29.658Z,101246.44
2023-09-08T23:18:17.653Z,101257.84
2023-09-08T23:21:05.075Z,101250.53
2023-09-08T23:23:52.315Z,101252.50
2023-09-08T23:26:40.732Z,101254.16
2023-09-08T23:29:27.883Z,101251.16
2023-09-08T23:32:16.082Z,101251.16
2023-09-08T23:35:05.040Z,101256.97
2023-09-08T23:37:52.392Z,101252.50
2023-09-08T23:40:39.550Z,101248.84
2023-09-08T23:43:27.679Z,101247.97
2023-09-08T23:46:14.975Z,101245.81
2023-09-08T23:49:02.236Z,101244.13
2023-09-08T23:51:49.350Z,101244.13
2023-09-08T23:54:36.412Z,101248.84
2023-09-08T23:57:23.669Z,101251.88
